Latest Weather Observations for The Monument

IDQ60801

Issued at 4:32 pm EST Tuesday 3 May 2016 (issued every 30 minutes, with the page automatically refreshed every 10 minutes)

About weather observations | Map of weather stations | Latest weather observations for QLD | Other Formats
Station Details ID: 037034 Name: THE MONUMENT AIRPORT Lat: -21.81 Lon: 139.93 Height: 288.4 m
Data from the previous 72 hours. | See also: Recent months at The Monument
Date/Time
EST
Temp
°C
App
Temp
°C
Dew
Point
Rel
Hum
%
Delta-T
°C
Wind Press
QNH
hPa
Press
MSL
hPa
Rain
since 9 am
mm
Dir
 
Spd
km/h
Gust
km/h
Spd
kts
Gust
kts
03/04:30pm 22.7 23.3 16.9 70 3.6 S 9 15 5 8 1016.0 1015.1 0.4
03/04:00pm 22.3 22.2 17.0 72 3.3 SSW 13 19 7 10 1015.9 1015.0 0.4
03/03:00pm 24.7 22.6 15.1 55 5.8 SSW 20 26 11 14 1016.0 1015.1 0.0
03/02:30pm 25.4 23.7 14.8 52 6.4 S 17 26 9 14 1016.0 1015.1 0.0
03/02:00pm 25.5 24.2 14.9 52 6.4 SSW 15 20 8 11 1016.4 1015.5 0.0
03/01:30pm 25.6 24.9 15.3 53 6.3 S 13 20 7 11 1016.5 1015.7 0.0
03/01:00pm 25.5 25.2 15.5 54 6.1 SSW 11 19 6 10 1016.8 1015.9 0.0
03/12:30pm 25.1 24.8 15.4 55 5.9 S 11 17 6 9 1017.2 1016.3 0.0
03/12:00pm 24.9 24.4 15.8 57 5.6 S 13 22 7 12 1017.9 1017.0 0.0
03/11:30am 23.9 23.2 15.4 59 5.2 SSE 13 20 7 11 1017.5 1016.6 0.0
03/11:00am 23.7 23.3 15.2 59 5.1 SE 11 15 6 8 1017.3 1016.4 0.0
03/10:30am 23.3 23.4 15.4 61 4.8 SE 9 11 5 6 1017.6 1016.7 0.0
03/10:00am 22.9 24.8 15.7 64 4.4 CALM 0 0 0 0 1017.8 1016.9 0.0
03/09:30am 22.6 23.9 15.2 63 4.5 ESE 2 9 1 5 1017.7 1016.8 0.0
03/09:00am 22.3 22.0 15.4 65 4.2 SSW 11 15 6 8 1018.1 1017.2 0.0
03/08:30am 21.7 21.7 15.3 67 3.9 SSW 9 13 5 7 1017.6 1016.7 0.0
03/08:00am 21.3 21.4 15.4 69 3.5 SSE 9 13 5 7 1017.1 1016.2 0.0
03/07:30am 21.0 22.7 15.3 70 3.4 CALM 0 7 0 4 1017.1 1016.2 0.0
03/07:00am 20.9 21.0 15.4 71 3.3 SSE 9 13 5 7 1016.8 1015.9 0.0
03/06:30am 20.7 21.2 15.5 72 3.1 SSE 7 11 4 6 1016.5 1015.7 0.0
03/06:00am 20.7 20.5 15.7 73 3.0 SSE 11 15 6 8 1016.1 1015.2 0.0
03/05:30am 20.6 19.2 15.6 73 3.0 S 17 24 9 13 1015.8 1014.9 0.0
03/05:00am 20.7 19.8 15.9 74 2.9 S 15 20 8 11 1015.5 1014.6 0.0
03/04:30am 20.8 20.4 16.2 75 2.8 S 13 17 7 9 1015.1 1014.2 0.0
03/04:00am 21.0 20.2 16.2 74 2.9 S 15 19 8 10 1015.3 1014.4 0.0
03/03:30am 21.1 20.4 16.5 75 2.8 SSE 15 20 8 11 1015.1 1014.2 0.0
03/03:00am 21.4 20.7 16.4 73 3.1 S 15 22 8 12 1015.2 1014.3 0.0
03/02:30am 21.9 21.6 16.4 71 3.4 S 13 17 7 9 1015.2 1014.3 0.0
03/02:00am 22.3 21.3 15.6 66 4.1 SSE 15 20 8 11 1015.5 1014.6 0.0
03/01:30am 22.9 20.9 15.0 61 4.8 S 19 24 10 13 1015.8 1014.9 0.0
03/01:00am 24.0 22.1 14.1 54 5.9 S 17 24 9 13 1016.0 1015.1 0.0
03/12:30am 24.2 23.4 14.0 53 6.1 SSE 11 17 6 9 1016.5 1015.7 0.0
03/12:00am 24.3 23.4 13.8 52 6.2 SSE 11 17 6 9 1016.8 1015.9 0.0
 
Date/Time
EST
Temp
°C
App
Temp
°C
Dew
Point
Rel
Hum
%
Delta-T
°C
Wind Press
QNH
hPa
Press
MSL
hPa
Rain
since 9 am
mm
Dir
 
Spd
km/h
Gust
km/h
Spd
kts
Gust
kts
02/11:30pm 24.5 23.3 14.0 52 6.3 S 13 19 7 10 1017.2 1016.3 0.0
02/11:00pm 24.2 23.3 13.7 52 6.2 S 11 13 6 7 1017.3 1016.4 0.0
02/10:30pm 24.1 23.6 13.9 53 6.1 SE 9 11 5 6 1017.0 1016.1 0.0
02/10:00pm 24.1 23.2 13.6 52 6.2 SSE 11 15 6 8 1017.1 1016.2 0.0
02/09:30pm 24.2 22.8 13.4 51 6.4 SSE 13 20 7 11 1017.4 1016.5 0.0
02/09:00pm 24.6 22.5 13.5 50 6.6 SSE 17 24 9 13 1017.4 1016.5 0.0
02/08:30pm 25.0 22.2 13.2 48 7.0 S 20 30 11 16 1017.2 1016.3 0.0
02/08:00pm 25.6 22.2 12.4 43 7.7 S 22 30 12 16 1016.6 1015.8 0.0
02/07:30pm 26.4 23.5 13.9 46 7.5 SSE 22 30 12 16 1016.0 1015.1 0.0
02/07:00pm 26.7 22.6 13.8 45 7.7 SSE 28 37 15 20 1015.7 1014.8 0.0
02/06:30pm 26.8 22.0 13.9 45 7.8 SSE 32 44 17 24 1015.4 1014.5 0.0
02/06:00pm 27.4 23.5 14.4 45 7.9 SSE 28 43 15 23 1015.1 1014.2 0.0
02/05:56pm 27.6 23.7 14.3 44 8.1 S 28 39 15 21 1015.1 1014.2 0.0
02/05:30pm 28.2 22.9 12.5 37 9.3 S 32 44 17 24 1014.9 1014.0 0.0
02/05:00pm 29.0 23.7 12.4 36 9.8 S 32 44 17 24 1014.5 1013.6 0.0
02/04:30pm 29.6 24.1 12.5 35 10.2 S 33 44 18 24 1014.3 1013.4 0.0
02/04:00pm 30.3 24.7 12.2 33 10.7 S 33 48 18 26 1014.2 1013.3 0.0
02/03:30pm 30.9 25.8 11.8 31 11.3 S 30 41 16 22 1013.6 1012.7 0.0
02/03:00pm 32.0 26.5 11.7 28 12.0 SSW 32 43 17 23 1013.8 1012.9 0.0
02/02:30pm 32.4 27.2 11.6 28 12.3 SSW 30 37 16 20 1013.6 1012.7 0.0
02/02:00pm 32.8 27.7 11.9 28 12.5 SSW 30 39 16 21 1013.9 1013.0 0.0
02/01:30pm 34.0 29.6 12.9 28 12.8 SSW 28 37 15 20 1013.8 1012.9 0.0
02/01:00pm 34.4 31.3 11.5 25 13.7 WNW 19 32 10 17 1014.1 1013.2 0.0
02/12:30pm 34.5 33.3 11.6 25 13.7 NW 9 20 5 11 1014.4 1013.5 0.0
02/12:00pm 34.0 32.3 11.2 25 13.5 NW 11 20 6 11 1014.8 1013.9 0.0
02/11:30am 33.7 31.9 12.1 27 13.0 NW 13 20 7 11 1015.1 1014.2 0.0
02/11:00am 32.7 31.9 12.9 30 12.0 NNW 9 17 5 9 1015.5 1014.6 0.0
02/10:30am 30.6 30.6 12.5 33 10.8 N 4 9 2 5 1015.7 1014.8 0.0
02/10:00am 28.4 29.0 11.9 36 9.7 CALM 0 7 0 4 1016.0 1015.1 0.0
02/09:30am 27.6 28.4 12.4 39 8.9 CALM 0 0 0 0 1015.8 1014.9 0.0
02/09:00am 25.8 26.6 12.6 44 7.7 CALM 0 7 0 4 1015.7 1014.8 0.0
02/08:30am 24.4 23.8 12.4 47 7.0 S 7 9 4 5 1015.7 1014.8 0.0
02/08:00am 23.3 24.0 12.3 50 6.3 CALM 0 0 0 0 1015.6 1014.7 0.0
02/07:30am 22.0 22.4 12.5 54 5.5 SW 2 7 1 4 1015.3 1014.4 0.0
02/07:00am 21.5 22.3 12.4 56 5.2 CALM 0 0 0 0 1014.9 1014.0 0.0
02/06:30am 22.2 21.8 12.5 54 5.6 SW 6 7 3 4 1014.5 1013.6 0.0
02/06:00am 22.6 21.7 12.5 53 5.8 SW 9 11 5 6 1014.3 1013.4 0.0
02/05:30am 22.9 22.5 12.5 52 6.0 WSW 6 7 3 4 1014.0 1013.1 0.0
02/05:00am 23.0 22.4 12.3 51 6.2 SSW 7 9 4 5 1013.9 1013.0 0.0
02/04:30am 23.2 22.7 12.2 50 6.3 SSW 6 7 3 4 1013.6 1012.7 0.0
02/04:00am 23.7 22.7 12.4 49 6.5 S 9 11 5 6 1013.6 1012.7 0.0
02/03:30am 24.5 22.8 12.5 47 7.0 S 13 15 7 8 1013.7 1012.8 0.0
02/03:00am 24.8 23.5 12.4 46 7.2 S 11 15 6 8 1013.7 1012.8 0.0
02/02:30am 25.3 24.3 12.2 44 7.6 S 9 13 5 7 1014.0 1013.1 0.0
02/02:00am 26.1 24.7 12.2 42 8.1 S 11 15 6 8 1013.9 1013.0 0.0
02/01:30am 26.7 24.7 11.6 39 8.7 S 13 17 7 9 1014.1 1013.2 0.0
02/01:00am 27.0 25.0 11.5 38 9.0 S 13 15 7 8 1014.3 1013.4 0.0
02/12:30am 27.1 25.9 11.6 38 9.0 S 9 13 5 7 1014.5 1013.6 0.0
02/12:00am 26.9 26.8 12.2 40 8.6 SW 4 13 2 7 1014.5 1013.6 0.0
 
Date/Time
EST
Temp
°C
App
Temp
°C
Dew
Point
Rel
Hum
%
Delta-T
°C
Wind Press
QNH
hPa
Press
MSL
hPa
Rain
since 9 am
mm
Dir
 
Spd
km/h
Gust
km/h
Spd
kts
Gust
kts
01/11:30pm 27.0 27.7 12.3 40 8.6 CALM 0 0 0 0 1014.6 1013.7 0.0
01/11:00pm 26.7 27.3 12.0 40 8.6 CALM 0 0 0 0 1014.7 1013.8 0.0
01/10:30pm 28.3 28.9 11.8 36 9.6 CALM 0 0 0 0 1014.8 1013.9 0.0
01/10:00pm 28.1 27.3 11.6 36 9.6 ESE 7 9 4 5 1015.0 1014.1 0.0
01/09:30pm 28.3 27.7 11.8 36 9.6 E 6 7 3 4 1015.0 1014.1 0.0
01/09:00pm 28.6 29.3 12.1 36 9.7 CALM 0 0 0 0 1015.1 1014.2 0.0
01/08:30pm 29.9 30.5 11.9 33 10.6 CALM 0 0 0 0 1014.9 1014.0 0.0
01/08:00pm 30.8 31.5 12.2 32 11.1 CALM 0 0 0 0 1014.7 1013.8 0.0
01/07:30pm 31.2 31.7 11.6 30 11.6 CALM 0 0 0 0 1014.4 1013.5 0.0
01/07:00pm 31.6 32.0 11.4 29 11.9 CALM 0 0 0 0 1014.1 1013.2 0.0
01/06:30pm 32.9 33.3 11.4 27 12.7 CALM 0 0 0 0 1013.8 1012.9 0.0
01/06:00pm 34.2 34.6 11.4 25 13.6 CALM 0 0 0 0 1013.4 1012.4 0.0
01/05:30pm 35.3 34.5 11.7 24 14.2 S 7 11 4 6 1013.2 1012.2 0.0
01/05:00pm 34.9 35.3 11.3 24 14.1 CALM 0 2 0 1 1013.1 1012.1 0.0
01/04:30pm 34.8 34.4 11.2 24 14.0 SSE 4 7 2 4 1012.8 1011.9 0.0
01/04:00pm 35.3 35.6 11.0 23 14.5 CALM 0 7 0 4 1012.8 1011.9 0.0
01/03:30pm 35.1 35.6 11.5 24 14.1 CALM 0 7 0 4 1012.9 1012.0 0.0
01/03:00pm 36.4 36.6 11.9 23 14.8 ENE 2 13 1 7 1012.9 1012.0 0.0
01/02:30pm 36.2 36.0 11.8 23 14.7 ENE 4 13 2 7 1013.3 1012.3 0.0
01/02:00pm 35.8 34.9 11.4 23 14.6 NE 7 15 4 8 1013.5 1012.5 0.0
01/01:30pm 35.1 33.9 11.5 24 14.1 SE 9 17 5 9 1013.8 1012.9 0.0
01/01:00pm 36.3 34.0 11.9 23 14.8 NNE 15 22 8 12 1014.2 1013.3 0.0
01/12:30pm 36.4 36.1 12.6 24 14.5 ENE 6 15 3 8 1014.7 1013.8 0.0
01/12:00pm 35.7 34.6 12.0 24 14.3 NE 9 19 5 10 1015.1 1014.2 0.0
01/11:30am 35.2 32.7 12.2 25 13.9 N 17 26 9 14 1015.5 1014.6 0.0
01/11:00am 34.8 32.4 12.5 26 13.5 N 17 24 9 13 1015.9 1015.0 0.0
01/10:30am 33.6 30.6 12.0 27 12.9 N 19 26 10 14 1016.0 1015.1 0.0
01/10:00am 32.9 30.5 12.5 29 12.3 NNE 17 24 9 13 1016.1 1015.2 0.0
01/09:30am 31.9 29.4 12.2 30 11.8 NNE 17 24 9 13 1016.2 1014.7 0.0
01/09:00am 30.9 29.5 12.3 32 11.1 NE 11 17 6 9 1016.1 1014.6 0.0
01/08:30am 28.3 28.0 12.6 38 9.3 NE 6 19 3 10 1016.0 1014.5 0.0
01/08:00am 25.4 26.1 12.3 44 7.6 CALM 0 0 0 0 1015.6 1014.1 0.0
01/07:30am 22.6 23.2 12.0 51 6.1 CALM 0 0 0 0 1015.3 1013.8 0.0
01/07:00am 22.4 23.0 11.8 51 6.0 CALM 0 0 0 0 1014.9 1013.4 0.0
01/06:30am 22.5 21.9 11.6 50 6.2 N 6 7 3 4 1014.7 1013.2 0.0
01/06:00am 22.6 21.4 11.7 50 6.2 N 9 9 5 5 1014.4 1012.9 0.0
01/05:30am 22.9 23.4 11.6 49 6.4 CALM 0 0 0 0 1014.2 1012.7 0.0
01/05:00am 22.7 23.1 11.4 49 6.4 CALM 0 0 0 0 1014.0 1012.4 0.0
01/04:30am 23.1 21.9 11.5 48 6.6 NNE 9 11 5 6 1014.1 1012.6 0.0
01/04:00am 22.5 22.6 11.6 50 6.2 NNE 2 11 1 6 1014.1 1012.6 0.0
01/03:30am 22.8 23.2 11.2 48 6.5 CALM 0 0 0 0 1014.1 1012.6 0.0
01/03:00am 23.0 22.1 11.4 48 6.6 NNE 7 9 4 5 1013.8 1012.2 0.0
01/02:30am 23.2 23.6 11.3 47 6.7 CALM 0 0 0 0 1014.1 1012.6 0.0
01/02:00am 24.2 24.7 11.5 45 7.2 CALM 0 0 0 0 1014.4 1012.9 0.0
01/01:30am 24.1 24.5 11.1 44 7.4 CALM 0 0 0 0 1014.6 1013.1 0.0
01/01:00am 25.9 26.3 11.3 40 8.4 CALM 0 0 0 0 1014.7 1013.2 0.0
01/12:30am 26.4 26.7 10.9 38 8.9 CALM 0 0 0 0 1014.8 1013.3 0.0
01/12:00am 27.1 26.2 11.2 37 9.2 NNE 7 7 4 4 1015.0 1013.5 0.0
 
Date/Time
EST
Temp
°C
App
Temp
°C
Dew
Point
Rel
Hum
%
Delta-T
°C
Wind Press
QNH
hPa
Press
MSL
hPa
Rain
since 9 am
mm
Dir
 
Spd
km/h
Gust
km/h
Spd
kts
Gust
kts
30/11:30pm 27.4 27.7 11.0 36 9.4 CALM 0 0 0 0 1015.3 1013.8 0.0
30/11:00pm 28.0 28.4 11.1 35 9.7 CALM 0 7 0 4 1015.4 1013.9 0.0
30/10:30pm 28.8 29.1 10.9 33 10.3 CALM 0 0 0 0 1015.4 1013.9 0.0
30/10:00pm 28.6 28.5 10.8 33 10.2 E 2 7 1 4 1015.3 1013.8 0.0
30/09:30pm 29.1 29.3 10.7 32 10.6 CALM 0 0 0 0 1015.4 1013.9 0.0
30/09:00pm 29.0 28.8 10.6 32 10.6 NNE 2 9 1 5 1015.2 1013.7 0.0
30/08:30pm 29.1 29.3 10.7 32 10.6 CALM 0 0 0 0 1014.9 1013.4 0.0
30/08:00pm 30.3 30.6 10.8 30 11.3 CALM 0 0 0 0 1014.6 1013.1 0.0
30/07:30pm 31.0 31.2 10.4 28 11.9 CALM 0 0 0 0 1014.2 1012.7 0.0
30/07:00pm 31.5 31.6 10.2 27 12.3 CALM 0 0 0 0 1013.8 1012.2 0.0
30/06:30pm 32.3 32.5 10.4 26 12.7 CALM 0 0 0 0 1013.5 1011.9 0.0
30/06:00pm 33.4 33.5 10.1 24 13.6 CALM 0 0 0 0 1013.3 1011.7 0.0
30/05:30pm 34.0 33.3 9.9 23 14.0 SSW 4 9 2 5 1013.2 1011.6 0.0
30/05:00pm 34.1 33.0 10.0 23 14.0 SSW 6 13 3 7 1013.1 1011.5 0.0

Other Formats:

Comma delimited format used in spreadsheet applications
http://www.bom.gov.au/fwo/IDQ60801/IDQ60801.94336.axf

JavaScript Object Notation format (JSON) in row-major order
http://www.bom.gov.au/fwo/IDQ60801/IDQ60801.94336.json